LHA2596 EDDN-LKPR
Flight info
| Callsign | LHA2596 |
|---|---|
| Flight time | 0h 38m |
| Altitude | 23000 |
| Route | RODIS1G/28 RODIS Z410 AGNAV DCT LOMKI |
| Aircraft | DH8D/M-SDE1E2FGIJ1RWYZ/S |
Departure
| Time | 2026-05-07 17:49 |
|---|---|
| Airport | Nuremberg Airport (EDDN) |
Arrival
| Time | 2026-05-07 18:28 |
|---|---|
| Airport | Václav Havel Airport Prague (LKPR) |
| Time | Latitude | Longitude | Altitude | Speed | Heading |
|---|---|---|---|---|---|
| 2026-05-07 17:31 | 49.49600 | 11.08139 | 1052 ft | 0 kts | 188° |
| 2026-05-07 17:46 | 49.49599 | 11.08139 | 1052 ft | 1 kts | 188° |
| 2026-05-07 17:46 | 49.49559 | 11.08141 | 1052 ft | 9 kts | 145° |
| 2026-05-07 17:46 | 49.49535 | 11.08281 | 1052 ft | 17 kts | 99° |
| 2026-05-07 17:46 | 49.49612 | 11.08402 | 1052 ft | 17 kts | 72° |
| 2026-05-07 17:47 | 49.49599 | 11.08603 | 1052 ft | 20 kts | 98° |
| 2026-05-07 17:47 | 49.49577 | 11.08825 | 1052 ft | 21 kts | 98° |
| 2026-05-07 17:47 | 49.49556 | 11.09053 | 1052 ft | 21 kts | 98° |
| 2026-05-07 17:47 | 49.49534 | 11.09271 | 1052 ft | 20 kts | 99° |
| 2026-05-07 17:48 | 49.49577 | 11.09456 | 1052 ft | 18 kts | 53° |
| 2026-05-07 17:48 | 49.49675 | 11.09557 | 1052 ft | 17 kts | 340° |
| 2026-05-07 17:48 | 49.49721 | 11.09353 | 1052 ft | 41 kts | 278° |
| 2026-05-07 17:48 | 49.49810 | 11.08380 | 1056 ft | 132 kts | 279° |
| 2026-05-07 17:49 | 49.49997 | 11.06926 | 1544 ft | 147 kts | 281° |
| 2026-05-07 17:49 | 49.50196 | 11.05390 | 2373 ft | 149 kts | 281° |
| 2026-05-07 17:49 | 49.50361 | 11.03716 | 2925 ft | 171 kts | 280° |
| 2026-05-07 17:49 | 49.50530 | 11.01877 | 3670 ft | 179 kts | 281° |
| 2026-05-07 17:50 | 49.50705 | 11.00010 | 4556 ft | 179 kts | 280° |
| 2026-05-07 17:50 | 49.50879 | 10.98177 | 5328 ft | 179 kts | 280° |
| 2026-05-07 17:50 | 49.51063 | 10.96284 | 6026 ft | 182 kts | 279° |
| 2026-05-07 17:50 | 49.51272 | 10.94385 | 6763 ft | 183 kts | 286° |
| 2026-05-07 17:51 | 49.52021 | 10.92891 | 7403 ft | 186 kts | 334° |
| 2026-05-07 17:51 | 49.53301 | 10.92614 | 8036 ft | 193 kts | 357° |
| 2026-05-07 17:51 | 49.54641 | 10.92636 | 8745 ft | 195 kts | 357° |
| 2026-05-07 17:51 | 49.55983 | 10.92662 | 9450 ft | 197 kts | 358° |
| 2026-05-07 17:52 | 49.57355 | 10.92695 | 10156 ft | 199 kts | 358° |
| 2026-05-07 17:52 | 49.58696 | 10.93043 | 10819 ft | 205 kts | 25° |
| 2026-05-07 17:52 | 49.59687 | 10.94754 | 11066 ft | 236 kts | 67° |
| 2026-05-07 17:52 | 49.59787 | 10.97365 | 11335 ft | 256 kts | 97° |
| 2026-05-07 17:53 | 49.59475 | 11.00104 | 11903 ft | 262 kts | 99° |
| 2026-05-07 17:53 | 49.59143 | 11.02867 | 12556 ft | 266 kts | 99° |
| 2026-05-07 17:53 | 49.58806 | 11.05628 | 13185 ft | 269 kts | 99° |
| 2026-05-07 17:53 | 49.58454 | 11.08489 | 13838 ft | 271 kts | 99° |
| 2026-05-07 17:54 | 49.58108 | 11.11304 | 14445 ft | 273 kts | 99° |
| 2026-05-07 17:54 | 49.57750 | 11.14197 | 15035 ft | 276 kts | 99° |
| 2026-05-07 17:54 | 49.57394 | 11.17065 | 15620 ft | 278 kts | 99° |
| 2026-05-07 17:54 | 49.57027 | 11.20008 | 16184 ft | 280 kts | 99° |
| 2026-05-07 17:55 | 49.56661 | 11.22942 | 16724 ft | 282 kts | 99° |
| 2026-05-07 17:55 | 49.56291 | 11.25899 | 17243 ft | 285 kts | 100° |
| 2026-05-07 17:55 | 49.55941 | 11.28902 | 17703 ft | 288 kts | 95° |
| 2026-05-07 17:55 | 49.56116 | 11.31924 | 18165 ft | 286 kts | 73° |
| 2026-05-07 17:56 | 49.56639 | 11.34885 | 18666 ft | 287 kts | 71° |
| 2026-05-07 17:56 | 49.57182 | 11.37846 | 19189 ft | 287 kts | 71° |
| 2026-05-07 17:56 | 49.57725 | 11.40769 | 19649 ft | 289 kts | 71° |
| 2026-05-07 17:56 | 49.58282 | 11.43750 | 20053 ft | 292 kts | 71° |
| 2026-05-07 17:57 | 49.58844 | 11.46748 | 20472 ft | 293 kts | 71° |
| 2026-05-07 17:57 | 49.59222 | 11.48762 | 20726 ft | 294 kts | 70° |
| 2026-05-07 17:57 | 49.59979 | 11.52785 | 21207 ft | 296 kts | 70° |
| 2026-05-07 17:57 | 49.60554 | 11.55840 | 21561 ft | 297 kts | 71° |
| 2026-05-07 17:58 | 49.61129 | 11.58897 | 21892 ft | 300 kts | 71° |
| 2026-05-07 17:58 | 49.61718 | 11.62027 | 21994 ft | 310 kts | 71° |
| 2026-05-07 17:58 | 49.62326 | 11.65260 | 22010 ft | 317 kts | 71° |
| 2026-05-07 17:58 | 49.62937 | 11.68510 | 22010 ft | 318 kts | 71° |
| 2026-05-07 17:59 | 49.63552 | 11.71787 | 22009 ft | 319 kts | 71° |
| 2026-05-07 17:59 | 49.64171 | 11.75097 | 22011 ft | 320 kts | 71° |
| 2026-05-07 17:59 | 49.64781 | 11.78365 | 22007 ft | 319 kts | 71° |
| 2026-05-07 17:59 | 49.65390 | 11.81630 | 22011 ft | 319 kts | 71° |
| 2026-05-07 18:00 | 49.66004 | 11.84934 | 22009 ft | 319 kts | 71° |
| 2026-05-07 18:00 | 49.66612 | 11.88203 | 22006 ft | 318 kts | 71° |
| 2026-05-07 18:00 | 49.67218 | 11.91473 | 22014 ft | 318 kts | 71° |
| 2026-05-07 18:00 | 49.67823 | 11.94744 | 22013 ft | 317 kts | 71° |
| 2026-05-07 18:01 | 49.68424 | 11.97996 | 22015 ft | 317 kts | 71° |
| 2026-05-07 18:01 | 49.69026 | 12.01257 | 22014 ft | 317 kts | 71° |
| 2026-05-07 18:01 | 49.69628 | 12.04529 | 22014 ft | 318 kts | 71° |
| 2026-05-07 18:01 | 49.70230 | 12.07804 | 22009 ft | 318 kts | 71° |
| 2026-05-07 18:02 | 49.71429 | 12.14348 | 22015 ft | 319 kts | 71° |
| 2026-05-07 18:02 | 49.72028 | 12.17625 | 22009 ft | 319 kts | 71° |
| 2026-05-07 18:02 | 49.72633 | 12.20941 | 22015 ft | 319 kts | 71° |
| 2026-05-07 18:03 | 49.73225 | 12.24194 | 22017 ft | 318 kts | 71° |
| 2026-05-07 18:03 | 49.73824 | 12.27489 | 22014 ft | 317 kts | 71° |
| 2026-05-07 18:03 | 49.74421 | 12.30775 | 22017 ft | 317 kts | 71° |
| 2026-05-07 18:03 | 49.75010 | 12.34026 | 22017 ft | 316 kts | 71° |
| 2026-05-07 18:04 | 49.75595 | 12.37263 | 22016 ft | 316 kts | 71° |
| 2026-05-07 18:04 | 49.76192 | 12.40569 | 22013 ft | 316 kts | 71° |
| 2026-05-07 18:04 | 49.76778 | 12.43818 | 21760 ft | 316 kts | 71° |
| 2026-05-07 18:04 | 49.77359 | 12.47034 | 21353 ft | 315 kts | 71° |
| 2026-05-07 18:05 | 49.77948 | 12.50305 | 20961 ft | 313 kts | 71° |
| 2026-05-07 18:05 | 49.78525 | 12.53515 | 20570 ft | 312 kts | 71° |
| 2026-05-07 18:05 | 49.79102 | 12.56730 | 20179 ft | 311 kts | 71° |
| 2026-05-07 18:05 | 49.79679 | 12.59956 | 19790 ft | 310 kts | 71° |
| 2026-05-07 18:06 | 49.80250 | 12.63158 | 19402 ft | 309 kts | 71° |
| 2026-05-07 18:06 | 49.80816 | 12.66338 | 19015 ft | 309 kts | 73° |
| 2026-05-07 18:06 | 49.81385 | 12.69540 | 18626 ft | 309 kts | 73° |
| 2026-05-07 18:06 | 49.81950 | 12.72732 | 18247 ft | 310 kts | 73° |
| 2026-05-07 18:07 | 49.82525 | 12.75979 | 17866 ft | 312 kts | 73° |
| 2026-05-07 18:07 | 49.83095 | 12.79210 | 17492 ft | 313 kts | 73° |
| 2026-05-07 18:07 | 49.83662 | 12.82430 | 17138 ft | 312 kts | 73° |
| 2026-05-07 18:07 | 49.84222 | 12.85614 | 17027 ft | 303 kts | 73° |
| 2026-05-07 18:08 | 49.84761 | 12.88682 | 17011 ft | 293 kts | 73° |
| 2026-05-07 18:08 | 49.85290 | 12.91706 | 17000 ft | 289 kts | 73° |
| 2026-05-07 18:08 | 49.85830 | 12.94800 | 17005 ft | 308 kts | 73° |
| 2026-05-07 18:08 | 49.86402 | 12.98092 | 17000 ft | 323 kts | 73° |
| 2026-05-07 18:09 | 49.86985 | 13.01448 | 16708 ft | 326 kts | 73° |
| 2026-05-07 18:09 | 49.87577 | 13.04846 | 16333 ft | 328 kts | 73° |
| 2026-05-07 18:09 | 49.88162 | 13.08212 | 15950 ft | 326 kts | 74° |
| 2026-05-07 18:09 | 49.88753 | 13.11616 | 15570 ft | 325 kts | 74° |
| 2026-05-07 18:10 | 49.89336 | 13.14974 | 15190 ft | 324 kts | 74° |
| 2026-05-07 18:10 | 49.89914 | 13.18314 | 14811 ft | 323 kts | 74° |
| 2026-05-07 18:10 | 49.90494 | 13.21670 | 14502 ft | 320 kts | 74° |
| 2026-05-07 18:10 | 49.90893 | 13.25009 | 14235 ft | 318 kts | 87° |
| 2026-05-07 18:11 | 49.90827 | 13.28431 | 13992 ft | 316 kts | 94° |
| 2026-05-07 18:11 | 49.90739 | 13.30701 | 13820 ft | 315 kts | 94° |
| 2026-05-07 18:11 | 49.90590 | 13.35166 | 13490 ft | 314 kts | 90° |
| 2026-05-07 18:11 | 49.91069 | 13.38413 | 13232 ft | 311 kts | 65° |
| 2026-05-07 18:12 | 49.91998 | 13.41423 | 13043 ft | 308 kts | 68° |
| 2026-05-07 18:12 | 49.92344 | 13.44689 | 12812 ft | 307 kts | 87° |
| 2026-05-07 18:12 | 49.92417 | 13.48017 | 12478 ft | 311 kts | 88° |
| 2026-05-07 18:12 | 49.92488 | 13.51350 | 12141 ft | 313 kts | 88° |
| 2026-05-07 18:13 | 49.92567 | 13.54749 | 11790 ft | 316 kts | 88° |
| 2026-05-07 18:13 | 49.92652 | 13.58113 | 11451 ft | 315 kts | 87° |
| 2026-05-07 18:13 | 49.92745 | 13.61484 | 11100 ft | 312 kts | 87° |
| 2026-05-07 18:13 | 49.92841 | 13.64855 | 10733 ft | 310 kts | 87° |
| 2026-05-07 18:14 | 49.92938 | 13.68151 | 10345 ft | 305 kts | 88° |
| 2026-05-07 18:14 | 49.93036 | 13.71414 | 9969 ft | 301 kts | 88° |
| 2026-05-07 18:14 | 49.93132 | 13.74612 | 9592 ft | 298 kts | 88° |
| 2026-05-07 18:14 | 49.93229 | 13.77840 | 9210 ft | 297 kts | 88° |
| 2026-05-07 18:15 | 49.93324 | 13.80992 | 8833 ft | 295 kts | 87° |
| 2026-05-07 18:15 | 49.93418 | 13.84156 | 8458 ft | 294 kts | 87° |
| 2026-05-07 18:15 | 49.93513 | 13.87293 | 8072 ft | 289 kts | 87° |
| 2026-05-07 18:15 | 49.93607 | 13.90366 | 7672 ft | 277 kts | 87° |
| 2026-05-07 18:16 | 49.93697 | 13.93281 | 7285 ft | 267 kts | 87° |
| 2026-05-07 18:16 | 49.93781 | 13.96071 | 7072 ft | 250 kts | 87° |
| 2026-05-07 18:16 | 49.93858 | 13.98640 | 6997 ft | 236 kts | 87° |
| 2026-05-07 18:16 | 49.93928 | 14.01223 | 6981 ft | 242 kts | 87° |
| 2026-05-07 18:17 | 49.94000 | 14.03866 | 6984 ft | 248 kts | 87° |
| 2026-05-07 18:17 | 49.94074 | 14.06540 | 6974 ft | 252 kts | 87° |
| 2026-05-07 18:17 | 49.94151 | 14.09298 | 6750 ft | 256 kts | 87° |
| 2026-05-07 18:17 | 49.94232 | 14.12029 | 6379 ft | 255 kts | 87° |
| 2026-05-07 18:18 | 49.94311 | 14.14783 | 5991 ft | 253 kts | 87° |
| 2026-05-07 18:18 | 49.94385 | 14.17500 | 5598 ft | 251 kts | 88° |
| 2026-05-07 18:18 | 49.94101 | 14.20103 | 5219 ft | 248 kts | 111° |
| 2026-05-07 18:18 | 49.93385 | 14.22477 | 5062 ft | 243 kts | 116° |
| 2026-05-07 18:19 | 49.92654 | 14.24830 | 5006 ft | 242 kts | 116° |
| 2026-05-07 18:19 | 49.91935 | 14.27210 | 4974 ft | 241 kts | 111° |
| 2026-05-07 18:19 | 49.91619 | 14.29716 | 4980 ft | 238 kts | 95° |
| 2026-05-07 18:19 | 49.91455 | 14.32271 | 4976 ft | 238 kts | 95° |
| 2026-05-07 18:20 | 49.91285 | 14.34830 | 4976 ft | 238 kts | 95° |
| 2026-05-07 18:20 | 49.91119 | 14.37381 | 4977 ft | 238 kts | 95° |
| 2026-05-07 18:20 | 49.90955 | 14.39918 | 4968 ft | 238 kts | 94° |
| 2026-05-07 18:20 | 49.91048 | 14.42432 | 4942 ft | 237 kts | 76° |
| 2026-05-07 18:21 | 49.91441 | 14.44980 | 4738 ft | 244 kts | 75° |
| 2026-05-07 18:21 | 49.91833 | 14.47534 | 4490 ft | 244 kts | 75° |
| 2026-05-07 18:21 | 49.92224 | 14.50092 | 4241 ft | 244 kts | 75° |
| 2026-05-07 18:21 | 49.92629 | 14.52637 | 3988 ft | 242 kts | 70° |
| 2026-05-07 18:22 | 49.93496 | 14.54814 | 3732 ft | 236 kts | 39° |
| 2026-05-07 18:22 | 49.94378 | 14.55669 | 3767 ft | 222 kts | 17° |
| 2026-05-07 18:22 | 49.96298 | 14.55522 | 3913 ft | 207 kts | 326° |
| 2026-05-07 18:22 | 49.97148 | 14.53799 | 3960 ft | 204 kts | 290° |
| 2026-05-07 18:23 | 49.97720 | 14.51786 | 3966 ft | 205 kts | 302° |
| 2026-05-07 18:23 | 49.98541 | 14.50031 | 3959 ft | 194 kts | 305° |
| 2026-05-07 18:23 | 49.99297 | 14.48346 | 3966 ft | 192 kts | 304° |
| 2026-05-07 18:23 | 50.00084 | 14.46667 | 3969 ft | 191 kts | 306° |
| 2026-05-07 18:24 | 50.00867 | 14.45042 | 3884 ft | 183 kts | 306° |
| 2026-05-07 18:24 | 50.01609 | 14.43482 | 3600 ft | 175 kts | 306° |
| 2026-05-07 18:24 | 50.02315 | 14.42026 | 3393 ft | 163 kts | 307° |
| 2026-05-07 18:24 | 50.02971 | 14.40674 | 3141 ft | 150 kts | 307° |
| 2026-05-07 18:25 | 50.03595 | 14.39401 | 2997 ft | 150 kts | 307° |
| 2026-05-07 18:25 | 50.04257 | 14.38070 | 2812 ft | 160 kts | 307° |
| 2026-05-07 18:25 | 50.04918 | 14.36706 | 2579 ft | 158 kts | 305° |
| 2026-05-07 18:25 | 50.05562 | 14.35368 | 2354 ft | 151 kts | 305° |
| 2026-05-07 18:26 | 50.06175 | 14.34099 | 2174 ft | 146 kts | 305° |
| 2026-05-07 18:26 | 50.06793 | 14.32830 | 1969 ft | 145 kts | 304° |
| 2026-05-07 18:26 | 50.07380 | 14.31613 | 1771 ft | 137 kts | 304° |
| 2026-05-07 18:26 | 50.07955 | 14.30430 | 1597 ft | 137 kts | 304° |
| 2026-05-07 18:27 | 50.08521 | 14.29257 | 1420 ft | 134 kts | 304° |
| 2026-05-07 18:27 | 50.09071 | 14.28123 | 1240 ft | 131 kts | 304° |
| 2026-05-07 18:27 | 50.09563 | 14.27075 | 1191 ft | 92 kts | 307° |
| 2026-05-07 18:27 | 50.09867 | 14.26449 | 1180 ft | 58 kts | 306° |
| 2026-05-07 18:28 | 50.10076 | 14.26021 | 1175 ft | 41 kts | 308° |
| 2026-05-07 18:28 | 50.10238 | 14.25731 | 1175 ft | 29 kts | 324° |
| 2026-05-07 18:28 | 50.10373 | 14.25661 | 1175 ft | 14 kts | 356° |
| 2026-05-07 18:28 | 50.10408 | 14.25661 | 1175 ft | 0 kts | 4° |
| 2026-05-07 18:29 | 50.10435 | 14.25664 | 1175 ft | 12 kts | 4° |
| 2026-05-07 18:29 | 50.10551 | 14.25731 | 1175 ft | 18 kts | 32° |
| 2026-05-07 18:29 | 50.10653 | 14.25840 | 1175 ft | 16 kts | 34° |
| 2026-05-07 18:29 | 50.10744 | 14.25936 | 1175 ft | 14 kts | 34° |
| 2026-05-07 18:30 | 50.10793 | 14.25984 | 1175 ft | 5 kts | 7° |
| 2026-05-07 18:30 | 50.10826 | 14.25950 | 1175 ft | 5 kts | 308° |
| 2026-05-07 18:30 | 50.10841 | 14.25917 | 1175 ft | 1 kts | 304° |
| 2026-05-07 18:30 | 50.10842 | 14.25914 | 1175 ft | 0 kts | 304° |